createdAt,value
2019-05-13T00:03:10.694Z,3.02
2019-05-13T00:08:16.707Z,4.12
2019-05-13T00:13:23.743Z,3.33
2019-05-13T00:18:30.111Z,3.63
2019-05-13T00:23:36.335Z,3.90
2019-05-13T00:28:44.396Z,5.33
2019-05-13T00:33:50.475Z,5.15
2019-05-13T00:38:56.539Z,4.28
2019-05-13T00:44:03.836Z,4.80
2019-05-13T00:49:09.995Z,3.80
2019-05-13T00:54:15.989Z,3.67
2019-05-13T00:59:24.102Z,2.70
2019-05-13T01:04:29.911Z,4.93
2019-05-13T01:09:35.960Z,3.77
2019-05-13T01:14:43.242Z,3.73
2019-05-13T01:19:50.338Z,4.30
2019-05-13T01:24:56.385Z,3.95
2019-05-13T01:30:04.102Z,3.80
2019-05-13T01:35:10.732Z,5.83
2019-05-13T01:40:17.060Z,6.47
2019-05-13T01:45:24.068Z,4.53
2019-05-13T01:50:30.449Z,5.20
2019-05-13T01:55:36.452Z,5.03
2019-05-13T02:00:44.241Z,6.50
2019-05-13T02:05:50.451Z,4.40
2019-05-13T02:10:57.583Z,4.03
2019-05-13T02:16:04.266Z,5.73
2019-05-13T02:21:10.786Z,3.92
2019-05-13T02:26:16.796Z,5.60
2019-05-13T02:31:39.062Z,6.67
2019-05-13T02:36:32.969Z,4.73
2019-05-13T02:41:38.567Z,7.15
2019-05-13T02:46:44.743Z,5.50
2019-05-13T02:51:54.280Z,6.00
2019-05-13T02:57:03.272Z,8.63
2019-05-13T03:02:07.556Z,5.40
2019-05-13T03:07:13.753Z,5.53
2019-05-13T03:12:23.167Z,7.27
2019-05-13T03:17:34.231Z,5.33
2019-05-13T03:22:43.111Z,7.93
2019-05-13T03:27:48.325Z,7.90
2019-05-13T03:33:01.509Z,5.72
2019-05-13T03:38:03.726Z,8.43
2019-05-13T03:43:12.845Z,6.67
2019-05-13T03:48:23.579Z,6.40
2019-05-13T03:53:32.608Z,10.33
2019-05-13T03:58:37.993Z,8.80
2019-05-13T04:03:44.426Z,8.87
2019-05-13T04:08:54.828Z,13.30
2019-05-13T04:14:03.202Z,8.20
2019-05-13T04:19:12.089Z,8.10
2019-05-13T04:24:17.840Z,8.03
2019-05-13T04:29:25.172Z,8.27
2019-05-13T04:34:33.679Z,5.63
2019-05-13T04:39:47.452Z,7.63
2019-05-13T04:44:47.425Z,6.93
2019-05-13T04:49:53.709Z,9.93
2019-05-13T04:55:03.419Z,5.90
2019-05-13T05:00:12.908Z,6.07
2019-05-13T05:06:06.332Z,7.40
2019-05-13T05:12:07.918Z,7.15
2019-05-13T05:17:35.996Z,7.67
2019-05-13T05:23:21.451Z,11.47
2019-05-13T05:29:02.576Z,8.33
2019-05-13T05:34:35.740Z,12.13
2019-05-13T05:39:42.745Z,11.13
2019-05-13T05:44:52.009Z,14.17
2019-05-13T05:49:58.547Z,9.70
2019-05-13T05:55:05.553Z,13.07
2019-05-13T06:00:12.667Z,13.60
2019-05-13T06:05:21.249Z,7.23
2019-05-13T06:10:27.263Z,5.97
2019-05-13T06:15:33.770Z,8.23
2019-05-13T06:20:41.848Z,11.57
2019-05-13T06:25:47.990Z,8.03
2019-05-13T06:30:54.263Z,7.13
2019-05-13T06:36:01.198Z,9.17
2019-05-13T06:41:11.440Z,10.30
2019-05-13T06:46:15.355Z,14.60
2019-05-13T06:51:22.205Z,9.60
2019-05-13T06:56:28.581Z,11.08
2019-05-13T07:01:34.684Z,9.90
2019-05-13T07:06:41.904Z,8.17
2019-05-13T07:11:48.507Z,12.13
2019-05-13T07:16:54.928Z,12.40
2019-05-13T07:22:02.819Z,8.23
2019-05-13T07:27:09.014Z,9.90
2019-05-13T07:32:15.305Z,7.20
2019-05-13T07:37:22.089Z,9.73
2019-05-13T07:42:28.473Z,8.10
2019-05-13T07:47:34.619Z,5.83
2019-05-13T07:52:42.164Z,6.47
2019-05-13T07:57:48.571Z,10.67
2019-05-13T08:02:54.884Z,8.20
2019-05-13T08:08:02.247Z,6.87
2019-05-13T08:13:08.814Z,6.55
2019-05-13T08:18:15.215Z,4.47
2019-05-13T08:23:21.768Z,4.67
2019-05-13T08:28:28.209Z,4.17
2019-05-13T08:33:34.370Z,4.23
2019-05-13T08:38:42.969Z,4.13
2019-05-13T08:43:48.332Z,5.40
2019-05-13T08:48:54.689Z,7.73
2019-05-13T08:54:02.375Z,5.50
2019-05-13T08:59:11.357Z,7.17
2019-05-13T09:04:16.791Z,4.87
2019-05-13T09:09:22.951Z,6.90
2019-05-13T09:14:29.090Z,5.67
2019-05-13T09:19:35.132Z,3.47
2019-05-13T09:24:42.482Z,6.20
2019-05-13T09:29:51.879Z,3.67
2019-05-13T09:34:58.468Z,4.63
2019-05-13T09:40:06.035Z,2.70
2019-05-13T09:45:12.798Z,3.52
2019-05-13T09:50:31.416Z,5.10
2019-05-13T09:55:29.376Z,3.57
2019-05-13T10:00:34.710Z,5.65
2019-05-13T10:05:41.113Z,6.80
2019-05-13T10:10:47.506Z,3.90
2019-05-13T10:15:53.644Z,3.70
2019-05-13T10:21:01.084Z,3.03
2019-05-13T10:26:12.474Z,4.73
2019-05-13T10:31:17.651Z,4.50
2019-05-13T10:36:24.226Z,4.10
2019-05-13T10:41:33.238Z,5.47
2019-05-13T10:46:39.573Z,3.60
2019-05-13T10:51:45.823Z,2.87
2019-05-13T11:02:02.246Z,3.07
2019-05-13T11:07:11.864Z,3.30
2019-05-13T11:12:17.060Z,1.80
2019-05-13T11:17:30.797Z,2.93
2019-05-13T11:22:32.726Z,1.93
2019-05-13T11:27:41.928Z,2.13
2019-05-13T11:32:47.252Z,2.77
2019-05-13T11:37:53.720Z,3.02
2019-05-13T11:43:01.766Z,2.53
2019-05-13T11:48:08.164Z,6.80
2019-05-13T11:53:31.680Z,4.03
2019-05-13T11:58:22.512Z,3.80
2019-05-13T12:03:32.145Z,1.97
2019-05-13T12:08:45.091Z,3.50
2019-05-13T12:13:47.453Z,3.57
2019-05-13T12:18:53.556Z,2.40
2019-05-13T12:24:07.270Z,2.50
2019-05-13T12:29:15.916Z,1.98
2019-05-13T12:34:16.404Z,7.25
2019-05-13T12:39:23.948Z,2.90
2019-05-13T12:44:31.599Z,4.07
2019-05-13T12:49:37.894Z,4.40
2019-05-13T12:54:44.539Z,4.63
2019-05-13T12:59:51.403Z,2.90
2019-05-13T13:05:13.325Z,5.57
2019-05-13T13:10:06.487Z,2.20
2019-05-13T13:15:36.075Z,3.80
2019-05-13T13:20:24.371Z,3.08
2019-05-13T13:25:28.896Z,2.13
2019-05-13T13:30:35.739Z,2.43
2019-05-13T13:35:45.229Z,2.93
2019-05-13T13:40:53.465Z,3.37
2019-05-13T13:46:32.649Z,2.73
2019-05-13T13:51:05.712Z,3.37
2019-05-13T13:56:14.545Z,2.87
2019-05-13T14:01:22.374Z,2.57
2019-05-13T14:06:26.942Z,2.20
2019-05-13T14:11:36.273Z,3.87
2019-05-13T14:16:46.376Z,2.72
2019-05-13T14:21:52.430Z,4.27
2019-05-13T14:26:58.432Z,3.00
2019-05-13T14:32:05.151Z,4.33
2019-05-13T14:37:11.856Z,3.20
2019-05-13T14:42:18.539Z,3.50
2019-05-13T14:47:24.834Z,4.13
2019-05-13T14:52:32.276Z,3.07
2019-05-13T14:57:38.728Z,2.45
2019-05-13T15:02:44.963Z,4.03
2019-05-13T15:07:52.850Z,4.30
2019-05-13T15:12:59.134Z,4.22
2019-05-13T15:18:05.292Z,3.70
2019-05-13T15:23:12.071Z,5.85
2019-05-13T15:28:18.646Z,3.20
2019-05-13T15:33:24.809Z,5.63
2019-05-13T15:38:32.083Z,3.83
2019-05-13T15:43:38.602Z,3.87
2019-05-13T15:48:45.910Z,5.10
2019-05-13T15:53:52.091Z,4.07
2019-05-13T15:58:58.308Z,3.33
2019-05-13T16:04:05.277Z,4.23
2019-05-13T16:09:11.814Z,3.87
2019-05-13T16:14:18.631Z,3.00
2019-05-13T16:19:24.966Z,3.87
2019-05-13T16:24:33.195Z,3.47
2019-05-13T16:29:41.569Z,2.50
2019-05-13T16:34:47.559Z,4.10
2019-05-13T16:39:53.976Z,5.57
2019-05-13T16:45:00.455Z,3.40
2019-05-13T16:50:07.661Z,4.43
2019-05-13T16:55:14.535Z,2.40
2019-05-13T17:00:21.167Z,4.00
2019-05-13T17:05:27.385Z,5.23
2019-05-13T17:10:33.745Z,4.83
2019-05-13T17:15:41.659Z,2.90
2019-05-13T17:20:48.096Z,3.37
2019-05-13T17:25:54.380Z,2.75
2019-05-13T17:31:02.155Z,5.30
2019-05-13T17:36:12.375Z,3.08
2019-05-13T17:41:18.227Z,3.37
2019-05-13T17:46:24.446Z,4.60
2019-05-13T17:51:31.568Z,2.93
2019-05-13T17:56:37.921Z,3.13
2019-05-13T18:01:44.174Z,4.37
2019-05-13T18:06:52.356Z,4.07
2019-05-13T18:11:58.828Z,4.03
2019-05-13T18:17:05.409Z,3.90
2019-05-13T18:22:11.842Z,2.97
2019-05-13T18:27:18.234Z,4.13
2019-05-13T18:32:24.516Z,4.13
2019-05-13T18:37:31.574Z,6.57
2019-05-13T18:42:41.945Z,3.03
2019-05-13T18:47:47.564Z,3.37
2019-05-13T18:52:53.909Z,2.30
2019-05-13T18:58:01.058Z,3.20
2019-05-13T19:03:07.564Z,4.00
2019-05-13T19:08:13.856Z,3.33
2019-05-13T19:13:21.732Z,3.23
2019-05-13T19:18:28.240Z,5.33
2019-05-13T19:23:34.403Z,7.13
2019-05-13T19:28:40.674Z,6.65
2019-05-13T19:33:46.909Z,6.10
2019-05-13T19:38:53.228Z,3.37
2019-05-13T19:44:01.461Z,6.00
2019-05-13T19:49:07.394Z,3.77
2019-05-13T19:54:13.539Z,5.58
2019-05-13T19:59:21.611Z,5.33
2019-05-13T20:04:27.794Z,4.37
2019-05-13T20:09:33.951Z,3.33
2019-05-13T20:14:40.089Z,2.50
2019-05-13T20:19:50.488Z,2.33
2019-05-13T20:24:54.148Z,4.80
2019-05-13T20:30:01.706Z,3.55
2019-05-13T20:35:08.780Z,2.77
2019-05-13T20:40:14.979Z,2.43
2019-05-13T20:45:22.420Z,3.75
2019-05-13T20:50:31.726Z,2.70
2019-05-13T20:55:38.319Z,3.22
2019-05-13T21:00:44.713Z,3.37
2019-05-13T21:05:52.047Z,2.43
2019-05-13T21:10:58.269Z,5.75
2019-05-13T21:16:05.379Z,3.50
2019-05-13T21:21:11.739Z,3.17
2019-05-13T21:26:18.018Z,2.30
2019-05-13T21:31:24.139Z,3.63
2019-05-13T21:36:30.223Z,2.70
2019-05-13T21:41:36.752Z,2.93
2019-05-13T21:46:42.976Z,2.57
2019-05-13T21:51:49.086Z,2.33
2019-05-13T21:56:55.219Z,4.70
2019-05-13T22:02:01.775Z,2.50
2019-05-13T22:07:11.941Z,2.17
2019-05-13T22:12:17.329Z,2.25
2019-05-13T22:17:23.458Z,2.63
2019-05-13T22:22:29.604Z,1.77
2019-05-13T22:27:35.797Z,2.00
2019-05-13T22:32:43.121Z,5.00
2019-05-13T22:37:51.171Z,1.40
2019-05-13T22:42:57.207Z,2.70
2019-05-13T22:48:03.709Z,2.05
2019-05-13T22:53:11.932Z,2.73
2019-05-13T22:58:17.873Z,2.15
2019-05-13T23:03:24.086Z,3.17
2019-05-13T23:08:32.513Z,3.33
2019-05-13T23:13:38.151Z,1.40
2019-05-13T23:18:44.397Z,2.65
2019-05-13T23:23:51.470Z,1.20
2019-05-13T23:28:57.800Z,3.00
2019-05-13T23:34:06.680Z,2.13
2019-05-13T23:39:12.865Z,3.03
2019-05-13T23:44:24.909Z,1.37
2019-05-13T23:49:26.659Z,2.90
2019-05-13T23:54:32.789Z,2.93
2019-05-13T23:59:38.974Z,3.37
